createdAt,value
2022-08-26T00:00:07.931Z,57.55
2022-08-26T00:03:01.050Z,57.49
2022-08-26T00:05:28.991Z,57.92
2022-08-26T00:07:57.475Z,57.96
2022-08-26T00:10:25.890Z,58.14
2022-08-26T00:12:53.824Z,58.05
2022-08-26T00:15:23.029Z,57.77
2022-08-26T00:17:52.924Z,57.75
2022-08-26T00:20:25.995Z,57.97
2022-08-26T00:22:54.888Z,58.10
2022-08-26T00:25:23.679Z,58.29
2022-08-26T00:27:51.781Z,58.58
2022-08-26T00:30:24.256Z,58.87
2022-08-26T00:32:55.480Z,58.71
2022-08-26T00:35:25.582Z,58.91
2022-08-26T00:37:56.874Z,59.34
2022-08-26T00:40:32.319Z,59.08
2022-08-26T00:43:01.991Z,59.19
2022-08-26T00:45:50.256Z,59.30
2022-08-26T00:48:21.576Z,59.45
2022-08-26T00:51:15.968Z,59.65
2022-08-26T00:53:50.264Z,59.88
2022-08-26T00:56:25.067Z,59.77
2022-08-26T00:58:56.917Z,60.11
2022-08-26T01:01:26.459Z,60.03
2022-08-26T01:03:55.968Z,60.04
2022-08-26T01:06:25.118Z,60.21
2022-08-26T01:08:53.783Z,60.32
2022-08-26T01:11:22.726Z,60.63
2022-08-26T01:13:54.841Z,60.41
2022-08-26T01:16:25.752Z,60.27
2022-08-26T01:18:59.862Z,60.34
2022-08-26T01:22:05.592Z,60.24
2022-08-26T01:24:33.872Z,60.38
2022-08-26T01:27:05.307Z,60.51
2022-08-26T01:29:36.469Z,60.54
2022-08-26T01:32:08.527Z,60.51
2022-08-26T01:34:38.648Z,60.63
2022-08-26T01:37:15.849Z,60.62
2022-08-26T01:39:47.808Z,60.55
2022-08-26T01:42:19.187Z,60.37
2022-08-26T01:45:05.562Z,60.35
2022-08-26T01:47:37.137Z,59.98
2022-08-26T01:50:10.704Z,60.25
2022-08-26T01:52:43.281Z,60.03
2022-08-26T01:55:15.043Z,59.98
2022-08-26T01:58:04.863Z,59.83
2022-08-26T02:00:35.427Z,59.74
2022-08-26T02:03:21.549Z,59.72
2022-08-26T02:06:00.249Z,59.85
2022-08-26T02:08:41.409Z,59.64
2022-08-26T02:11:10.636Z,59.66
2022-08-26T02:13:52.118Z,59.83
2022-08-26T02:16:27.132Z,60.02
2022-08-26T02:18:56.049Z,60.39
2022-08-26T02:21:24.898Z,60.37
2022-08-26T02:23:56.213Z,60.61
2022-08-26T02:26:26.949Z,60.81
2022-08-26T02:29:26.918Z,60.56
2022-08-26T02:31:56.140Z,60.81
2022-08-26T02:34:31.010Z,60.72
2022-08-26T02:37:01.235Z,61.03
2022-08-26T02:39:31.309Z,61.39
2022-08-26T02:41:59.681Z,61.02
2022-08-26T02:44:27.820Z,60.95
2022-08-26T02:46:56.252Z,61.07
2022-08-26T02:49:25.318Z,60.97
2022-08-26T02:51:54.336Z,60.85
2022-08-26T02:54:22.230Z,61.18
2022-08-26T02:56:51.415Z,61.15
2022-08-26T02:59:19.327Z,61.70
2022-08-26T03:01:52.807Z,61.46
2022-08-26T03:04:25.961Z,61.22
2022-08-26T03:06:55.586Z,61.36
2022-08-26T03:09:24.013Z,61.42
2022-08-26T03:11:52.638Z,61.67
2022-08-26T03:14:21.041Z,61.61
2022-08-26T03:16:50.944Z,61.75
2022-08-26T03:19:19.002Z,61.92
2022-08-26T03:21:47.485Z,62.19
2022-08-26T03:24:17.028Z,62.17
2022-08-26T03:26:52.157Z,61.90
2022-08-26T03:29:40.340Z,61.83
2022-08-26T03:32:09.711Z,62.03
2022-08-26T03:34:38.705Z,62.15
2022-08-26T03:37:06.784Z,62.43
2022-08-26T03:39:35.025Z,62.46
2022-08-26T03:42:02.855Z,62.36
2022-08-26T03:44:31.600Z,62.24
2022-08-26T03:47:00.657Z,62.45
2022-08-26T03:49:31.654Z,62.67
2022-08-26T03:51:59.729Z,62.37
2022-08-26T03:54:27.554Z,62.42
2022-08-26T03:56:55.582Z,62.74
2022-08-26T03:59:25.146Z,62.93
2022-08-26T04:01:53.038Z,62.94
2022-08-26T04:04:22.590Z,63.07
2022-08-26T04:06:57.383Z,62.95
2022-08-26T04:09:27.640Z,62.90
2022-08-26T04:11:58.673Z,62.94
2022-08-26T04:14:28.259Z,62.93
2022-08-26T04:16:56.806Z,63.16
2022-08-26T04:19:26.031Z,63.25
2022-08-26T04:21:54.582Z,63.44
2022-08-26T04:24:24.929Z,63.50
2022-08-26T04:26:53.972Z,63.56
2022-08-26T04:29:24.609Z,63.76
2022-08-26T04:31:57.294Z,63.42
2022-08-26T04:34:28.447Z,64.31
2022-08-26T04:36:58.075Z,64.42
2022-08-26T04:39:27.654Z,64.38
2022-08-26T04:41:57.647Z,63.95
2022-08-26T04:44:29.816Z,64.07
2022-08-26T04:46:58.630Z,64.26
2022-08-26T04:49:27.706Z,63.89
2022-08-26T04:51:55.904Z,64.53
2022-08-26T04:54:23.963Z,64.64
2022-08-26T04:56:54.261Z,64.97
2022-08-26T04:59:22.088Z,64.58
2022-08-26T05:01:52.313Z,64.37
2022-08-26T05:04:21.202Z,64.29
2022-08-26T05:06:50.410Z,64.22
2022-08-26T05:09:18.858Z,63.51
2022-08-26T05:11:48.585Z,63.17
2022-08-26T05:14:23.271Z,63.51
2022-08-26T05:16:52.368Z,63.96
2022-08-26T05:19:21.183Z,64.20
2022-08-26T05:21:49.738Z,63.91
2022-08-26T05:24:18.361Z,62.29
2022-08-26T05:26:47.295Z,61.91
2022-08-26T05:29:16.775Z,61.42
2022-08-26T05:31:45.023Z,60.80
2022-08-26T05:34:13.135Z,60.27
2022-08-26T05:36:41.436Z,60.77
2022-08-26T05:39:10.509Z,59.87
2022-08-26T05:41:41.147Z,58.55
2022-08-26T05:44:11.419Z,58.66
2022-08-26T05:46:41.600Z,58.27
2022-08-26T05:49:10.179Z,58.00
2022-08-26T05:51:45.151Z,57.88
2022-08-26T05:54:14.236Z,57.95
2022-08-26T05:56:53.004Z,57.06
2022-08-26T05:59:23.916Z,55.63
2022-08-26T06:01:55.192Z,56.51
2022-08-26T06:04:26.921Z,57.48
2022-08-26T06:06:57.025Z,56.92
2022-08-26T06:09:26.738Z,56.13
2022-08-26T06:11:56.038Z,55.92
2022-08-26T06:14:24.017Z,55.91
2022-08-26T06:16:51.976Z,57.03
2022-08-26T06:19:22.111Z,58.15
2022-08-26T06:21:51.367Z,54.88
2022-08-26T06:24:41.264Z,53.58
2022-08-26T06:27:13.779Z,53.46
2022-08-26T06:29:43.011Z,53.97
2022-08-26T06:32:11.659Z,53.25
2022-08-26T06:34:39.495Z,53.39
2022-08-26T06:37:09.008Z,53.41
2022-08-26T06:39:41.239Z,53.00
2022-08-26T06:42:10.823Z,51.93
2022-08-26T06:44:39.025Z,49.68
2022-08-26T06:47:09.045Z,50.73
2022-08-26T06:49:37.281Z,50.23
2022-08-26T06:52:05.093Z,50.01
2022-08-26T06:54:32.893Z,50.26
2022-08-26T06:57:01.267Z,49.87
2022-08-26T06:59:31.305Z,48.51
2022-08-26T07:01:59.372Z,47.71
2022-08-26T07:04:28.123Z,48.36
2022-08-26T07:06:56.836Z,47.74
2022-08-26T07:09:30.394Z,47.31
2022-08-26T07:11:59.268Z,47.72
2022-08-26T07:14:27.054Z,47.87
2022-08-26T07:16:54.837Z,47.13
2022-08-26T07:19:30.195Z,47.83
2022-08-26T07:22:03.499Z,48.53
2022-08-26T07:24:35.053Z,48.87
2022-08-26T07:27:05.915Z,47.44
2022-08-26T07:29:36.075Z,46.79
2022-08-26T07:32:04.252Z,46.89
2022-08-26T07:34:33.732Z,46.58
2022-08-26T07:37:01.941Z,45.12
2022-08-26T07:39:31.426Z,45.55
2022-08-26T07:42:07.753Z,45.74
2022-08-26T07:44:37.253Z,45.45
2022-08-26T07:47:10.453Z,44.82
2022-08-26T07:49:56.731Z,43.42
2022-08-26T07:52:27.486Z,44.01
2022-08-26T07:54:58.267Z,43.72
2022-08-26T07:57:27.806Z,43.67
2022-08-26T07:59:56.294Z,42.81
2022-08-26T08:02:25.726Z,42.84
2022-08-26T08:04:54.847Z,42.74
2022-08-26T08:07:38.296Z,43.24
2022-08-26T08:10:11.320Z,41.47
2022-08-26T08:12:40.705Z,42.13
2022-08-26T08:15:13.347Z,43.16
2022-08-26T08:17:43.528Z,42.72
2022-08-26T08:20:13.651Z,41.15
2022-08-26T08:22:43.276Z,41.15
2022-08-26T08:25:12.125Z,41.00
2022-08-26T08:27:42.934Z,40.93
2022-08-26T08:30:13.901Z,40.66
2022-08-26T08:32:45.739Z,39.40
2022-08-26T08:35:18.428Z,39.64
2022-08-26T08:37:46.706Z,39.09
2022-08-26T08:40:18.798Z,38.59
2022-08-26T08:43:07.156Z,38.98
2022-08-26T08:45:38.414Z,38.62
2022-08-26T08:48:16.282Z,35.91
2022-08-26T08:50:49.320Z,36.19
2022-08-26T08:53:30.756Z,36.40
2022-08-26T08:56:23.880Z,37.60
2022-08-26T08:59:07.358Z,37.87
2022-08-26T09:01:52.465Z,36.41
2022-08-26T09:05:04.473Z,35.81
2022-08-26T09:07:50.508Z,34.89
2022-08-26T09:10:21.646Z,35.23
2022-08-26T09:12:52.366Z,35.91
2022-08-26T09:15:30.188Z,34.14
2022-08-26T09:18:27.012Z,33.66
2022-08-26T09:21:00.220Z,32.81
2022-08-26T09:23:28.201Z,32.41
2022-08-26T09:26:03.675Z,31.78
2022-08-26T09:28:32.515Z,30.41
2022-08-26T09:31:39.224Z,28.63
2022-08-26T09:34:22.596Z,28.51
2022-08-26T09:36:51.775Z,27.91
2022-08-26T09:39:28.371Z,28.09
2022-08-26T09:42:23.050Z,27.26
2022-08-26T09:45:04.073Z,27.41
2022-08-26T09:47:37.026Z,27.99
2022-08-26T09:50:28.953Z,27.83
2022-08-26T09:53:17.242Z,27.78
2022-08-26T09:55:52.381Z,28.54
2022-08-26T09:58:43.487Z,29.17
2022-08-26T10:01:36.174Z,29.60
2022-08-26T10:04:10.395Z,29.81
2022-08-26T10:06:54.954Z,29.66
2022-08-26T10:09:25.806Z,29.88
2022-08-26T10:11:57.197Z,29.74
2022-08-26T10:14:33.547Z,30.95
2022-08-26T10:17:22.234Z,30.55
2022-08-26T10:19:59.881Z,30.46
2022-08-26T10:22:37.208Z,28.31
2022-08-26T10:25:12.073Z,29.14
2022-08-26T10:27:53.441Z,29.16
2022-08-26T10:30:24.605Z,27.95
2022-08-26T10:33:00.925Z,28.50
2022-08-26T10:35:30.923Z,28.65
2022-08-26T10:38:04.735Z,28.73
2022-08-26T10:41:10.671Z,28.74
2022-08-26T10:43:55.987Z,28.40
2022-08-26T10:46:28.587Z,29.37
2022-08-26T10:49:03.329Z,26.77
2022-08-26T10:51:42.327Z,24.75
2022-08-26T10:54:22.155Z,24.71
2022-08-26T10:57:17.557Z,24.62
2022-08-26T11:00:30.294Z,25.41
2022-08-26T11:03:31.642Z,25.79
2022-08-26T11:06:18.443Z,25.90
2022-08-26T11:09:32.487Z,25.74
2022-08-26T11:12:05.134Z,24.83
2022-08-26T11:14:42.010Z,25.68
2022-08-26T11:17:46.785Z,26.40
2022-08-26T11:20:23.820Z,26.85
2022-08-26T11:22:54.510Z,26.73
2022-08-26T11:25:29.755Z,27.02
2022-08-26T11:28:00.497Z,27.61
2022-08-26T11:30:38.942Z,27.31
2022-08-26T11:33:08.601Z,27.65
2022-08-26T11:35:37.429Z,28.00
2022-08-26T11:38:22.864Z,28.22
2022-08-26T11:41:08.951Z,29.00
2022-08-26T11:43:40.042Z,29.62
2022-08-26T11:46:11.683Z,28.70
2022-08-26T11:48:42.622Z,28.53
2022-08-26T11:51:24.901Z,28.15
2022-08-26T11:54:12.078Z,28.34
2022-08-26T11:56:42.402Z,28.13
2022-08-26T11:59:15.640Z,28.18
2022-08-26T12:01:46.051Z,28.82
2022-08-26T12:04:28.704Z,29.63
2022-08-26T12:06:58.813Z,30.10
2022-08-26T12:09:30.499Z,30.15
2022-08-26T12:12:18.030Z,30.05
2022-08-26T12:14:45.827Z,31.16
2022-08-26T12:17:19.810Z,31.32
2022-08-26T12:19:50.505Z,32.83
2022-08-26T12:22:27.076Z,32.12
2022-08-26T12:25:00.053Z,30.95
2022-08-26T12:27:32.606Z,31.57
2022-08-26T12:30:14.338Z,31.23
2022-08-26T12:33:21.933Z,30.98
2022-08-26T12:35:56.228Z,30.80
2022-08-26T12:38:26.882Z,30.31
2022-08-26T12:40:57.076Z,31.17
2022-08-26T12:43:46.062Z,30.06
2022-08-26T12:46:24.518Z,30.42
2022-08-26T12:48:52.648Z,30.75
2022-08-26T12:51:25.329Z,29.88
2022-08-26T12:53:54.429Z,30.92
2022-08-26T12:56:27.942Z,30.23
2022-08-26T12:59:28.240Z,29.58
2022-08-26T13:01:56.309Z,29.21
2022-08-26T13:04:38.109Z,28.56
2022-08-26T13:07:14.930Z,28.26
2022-08-26T13:09:43.115Z,29.40
2022-08-26T13:12:12.973Z,30.75
2022-08-26T13:14:41.258Z,29.48
2022-08-26T13:17:09.337Z,29.34
2022-08-26T13:19:37.404Z,29.28
2022-08-26T13:22:06.400Z,29.05
2022-08-26T13:24:38.235Z,29.77
2022-08-26T13:27:09.764Z,30.29
2022-08-26T13:29:38.303Z,29.19
2022-08-26T13:32:08.120Z,29.51
2022-08-26T13:34:37.627Z,30.00
2022-08-26T13:37:06.831Z,29.25
2022-08-26T13:39:35.005Z,29.21
2022-08-26T13:42:03.088Z,29.47
2022-08-26T13:44:31.055Z,29.31
2022-08-26T13:46:59.243Z,29.33
2022-08-26T13:49:27.412Z,29.16
2022-08-26T13:51:55.385Z,29.87
2022-08-26T13:54:23.460Z,30.10
2022-08-26T13:56:51.944Z,30.40
2022-08-26T13:59:19.921Z,30.35
2022-08-26T14:01:48.302Z,31.40
2022-08-26T14:04:16.274Z,30.85
2022-08-26T14:06:51.619Z,29.60
2022-08-26T14:09:19.696Z,28.81
2022-08-26T14:11:54.646Z,28.98
2022-08-26T14:14:23.932Z,29.37
2022-08-26T14:16:59.394Z,29.89
2022-08-26T14:19:30.338Z,30.08
2022-08-26T14:22:01.098Z,30.09
2022-08-26T14:24:29.738Z,29.62
2022-08-26T14:26:57.813Z,30.14
2022-08-26T14:29:26.505Z,29.31
2022-08-26T14:31:57.189Z,29.44
2022-08-26T14:34:25.827Z,29.81
2022-08-26T14:36:53.903Z,29.54
2022-08-26T14:39:22.539Z,29.71
2022-08-26T14:41:54.981Z,29.66
2022-08-26T14:44:29.639Z,28.30
2022-08-26T14:47:01.195Z,29.29
2022-08-26T14:49:31.371Z,29.97
2022-08-26T14:51:59.753Z,29.22
2022-08-26T14:54:29.518Z,29.75
2022-08-26T14:57:04.024Z,29.39
2022-08-26T14:59:35.909Z,29.35
2022-08-26T15:02:05.458Z,29.10
2022-08-26T15:04:33.742Z,28.75
2022-08-26T15:07:02.697Z,29.07
2022-08-26T15:09:33.321Z,28.87
2022-08-26T15:12:01.963Z,28.24
2022-08-26T15:14:32.952Z,28.99
2022-08-26T15:17:01.288Z,28.80
2022-08-26T15:19:29.360Z,28.72
2022-08-26T15:21:57.335Z,28.49
2022-08-26T15:24:28.970Z,28.20
2022-08-26T15:26:57.785Z,28.20
2022-08-26T15:29:26.063Z,29.27
2022-08-26T15:31:55.330Z,29.15
2022-08-26T15:34:25.597Z,29.52
2022-08-26T15:36:54.387Z,29.94
2022-08-26T15:39:22.358Z,29.98
2022-08-26T15:41:51.252Z,29.81
2022-08-26T15:44:19.944Z,28.98
2022-08-26T15:46:49.524Z,28.63
2022-08-26T15:49:18.832Z,29.01
2022-08-26T15:51:50.565Z,28.36
2022-08-26T15:54:21.707Z,29.20
2022-08-26T15:56:52.564Z,29.60
2022-08-26T15:59:22.526Z,28.80
2022-08-26T16:01:51.801Z,29.00
2022-08-26T16:04:21.023Z,28.29
2022-08-26T16:06:51.600Z,28.31
2022-08-26T16:09:23.962Z,28.02
2022-08-26T16:11:56.507Z,28.02
2022-08-26T16:14:25.298Z,28.32
2022-08-26T16:16:53.623Z,29.21
2022-08-26T16:19:22.417Z,29.54
2022-08-26T16:21:51.676Z,29.59
2022-08-26T16:24:24.767Z,29.30
2022-08-26T16:26:55.502Z,29.71
2022-08-26T16:29:24.721Z,30.17
2022-08-26T16:31:54.881Z,30.72
2022-08-26T16:34:23.222Z,30.36
2022-08-26T16:36:51.285Z,30.83
2022-08-26T16:39:19.360Z,30.53
2022-08-26T16:41:47.334Z,30.74
2022-08-26T16:44:15.411Z,30.76
2022-08-26T16:46:43.528Z,30.76
2022-08-26T16:49:11.560Z,30.54
2022-08-26T16:51:39.633Z,30.86
2022-08-26T16:54:09.001Z,30.77
2022-08-26T16:56:37.628Z,30.78
2022-08-26T16:59:07.775Z,30.82
2022-08-26T17:01:35.819Z,30.55
2022-08-26T17:04:04.361Z,31.08
2022-08-26T17:06:32.391Z,30.80
2022-08-26T17:09:00.306Z,30.57
2022-08-26T17:11:28.439Z,30.68
2022-08-26T17:13:57.229Z,30.63
2022-08-26T17:16:27.070Z,30.84
2022-08-26T17:18:57.887Z,30.88
2022-08-26T17:21:27.594Z,31.23
2022-08-26T17:23:56.502Z,31.05
2022-08-26T17:26:24.380Z,31.24
2022-08-26T17:28:52.830Z,31.14
2022-08-26T17:31:22.099Z,31.29
2022-08-26T17:33:53.532Z,31.55
2022-08-26T17:36:28.127Z,31.60
2022-08-26T17:38:57.709Z,31.39
2022-08-26T17:41:27.022Z,31.96
2022-08-26T17:43:54.954Z,32.28
2022-08-26T17:46:23.440Z,32.45
2022-08-26T17:48:51.652Z,32.86
2022-08-26T17:51:20.798Z,32.56
2022-08-26T17:53:49.141Z,33.21
2022-08-26T17:56:20.247Z,33.43
2022-08-26T17:58:51.211Z,32.99
2022-08-26T18:01:26.299Z,32.87
2022-08-26T18:04:00.187Z,33.63
2022-08-26T18:06:30.736Z,33.95
2022-08-26T18:09:00.184Z,34.15
2022-08-26T18:11:28.440Z,34.83
2022-08-26T18:13:56.427Z,34.98
2022-08-26T18:16:24.876Z,35.30
2022-08-26T18:18:53.780Z,36.08
2022-08-26T18:21:25.274Z,36.65
2022-08-26T18:23:54.224Z,37.31
2022-08-26T18:26:33.449Z,37.81
2022-08-26T18:29:01.974Z,38.15
2022-08-26T18:31:30.733Z,38.43
2022-08-26T18:34:00.868Z,38.30
2022-08-26T18:36:35.836Z,39.14
2022-08-26T18:39:05.649Z,39.77
2022-08-26T18:41:39.643Z,40.09
2022-08-26T18:44:12.950Z,40.11
2022-08-26T18:46:43.383Z,40.60
2022-08-26T18:49:16.197Z,39.81
2022-08-26T18:51:45.448Z,40.04
2022-08-26T18:54:13.841Z,40.24
2022-08-26T18:56:42.529Z,40.17
2022-08-26T18:59:11.572Z,41.00
2022-08-26T19:01:42.054Z,40.74
2022-08-26T19:04:14.141Z,41.51
2022-08-26T19:06:47.423Z,41.72
2022-08-26T19:09:17.890Z,41.34
2022-08-26T19:11:47.005Z,41.65
2022-08-26T19:14:18.242Z,41.95
2022-08-26T19:16:49.619Z,41.66
2022-08-26T19:19:18.282Z,42.25
2022-08-26T19:21:47.174Z,41.54
2022-08-26T19:24:17.730Z,42.27
2022-08-26T19:26:57.887Z,42.64
2022-08-26T19:29:29.549Z,42.83
2022-08-26T19:31:58.766Z,43.00
2022-08-26T19:34:26.621Z,43.64
2022-08-26T19:36:56.976Z,43.85
2022-08-26T19:39:26.430Z,44.00
2022-08-26T19:41:54.600Z,44.05
2022-08-26T19:44:41.836Z,43.86
2022-08-26T19:47:11.223Z,44.83
2022-08-26T19:49:39.424Z,44.74
2022-08-26T19:52:08.084Z,44.67
2022-08-26T19:54:36.261Z,45.28
2022-08-26T19:57:05.018Z,45.62
2022-08-26T19:59:33.196Z,45.59
2022-08-26T20:02:01.981Z,45.85
2022-08-26T20:04:31.510Z,45.67
2022-08-26T20:07:00.916Z,46.29
2022-08-26T20:09:31.272Z,46.93
2022-08-26T20:11:59.449Z,46.74
2022-08-26T20:14:28.545Z,46.87
2022-08-26T20:16:56.912Z,46.81
2022-08-26T20:19:43.935Z,47.26
2022-08-26T20:22:12.940Z,47.46
2022-08-26T20:24:41.223Z,47.64
2022-08-26T20:27:09.910Z,47.49
2022-08-26T20:29:39.011Z,47.91
2022-08-26T20:32:08.104Z,48.18
2022-08-26T20:34:37.104Z,48.25
2022-08-26T20:37:05.386Z,48.57
2022-08-26T20:39:33.461Z,48.57
2022-08-26T20:42:01.331Z,48.44
2022-08-26T20:44:29.406Z,48.57
2022-08-26T20:46:59.325Z,48.52
2022-08-26T20:49:28.833Z,48.71
2022-08-26T20:51:56.806Z,48.72
2022-08-26T20:54:28.521Z,48.90
2022-08-26T20:56:58.532Z,49.11
2022-08-26T20:59:27.176Z,49.33
2022-08-26T21:01:55.352Z,49.34
2022-08-26T21:04:25.259Z,49.67
2022-08-26T21:06:54.640Z,49.63
2022-08-26T21:09:24.437Z,49.67
2022-08-26T21:11:54.443Z,49.58
2022-08-26T21:14:25.798Z,49.48
2022-08-26T21:16:54.591Z,48.64
2022-08-26T21:19:22.782Z,47.67
2022-08-26T21:21:51.012Z,47.13
2022-08-26T21:24:19.493Z,48.14
2022-08-26T21:26:47.671Z,47.80
2022-08-26T21:29:15.701Z,47.62
2022-08-26T21:31:46.608Z,48.24
2022-08-26T21:34:18.063Z,48.27
2022-08-26T21:36:47.907Z,48.71
2022-08-26T21:39:17.002Z,49.08
2022-08-26T21:41:47.408Z,49.39
2022-08-26T21:44:16.925Z,49.11
2022-08-26T21:46:46.343Z,49.27
2022-08-26T21:49:18.466Z,49.46
2022-08-26T21:51:48.492Z,49.15
2022-08-26T21:54:18.271Z,48.21
2022-08-26T21:56:47.811Z,47.82
2022-08-26T21:59:18.955Z,48.29
2022-08-26T22:01:47.758Z,48.81
2022-08-26T22:04:16.436Z,48.00
2022-08-26T22:06:47.708Z,47.77
2022-08-26T22:09:19.090Z,48.16
2022-08-26T22:11:47.623Z,48.93
2022-08-26T22:14:17.391Z,48.48
2022-08-26T22:16:50.162Z,48.41
2022-08-26T22:19:20.446Z,48.19
2022-08-26T22:21:53.583Z,47.44
2022-08-26T22:24:23.756Z,48.20
2022-08-26T22:26:52.859Z,49.50
2022-08-26T22:29:21.344Z,48.61
2022-08-26T22:31:49.454Z,48.46
2022-08-26T22:34:19.748Z,48.32
2022-08-26T22:36:49.359Z,48.07
2022-08-26T22:39:21.225Z,48.19
2022-08-26T22:41:50.221Z,48.64
2022-08-26T22:44:19.522Z,48.77
2022-08-26T22:46:48.621Z,49.79
2022-08-26T22:49:17.620Z,49.35
2022-08-26T22:51:46.920Z,49.18
2022-08-26T22:54:15.918Z,48.92
2022-08-26T22:56:45.121Z,49.38
2022-08-26T22:59:13.502Z,49.85
2022-08-26T23:01:43.418Z,49.68
2022-08-26T23:04:12.108Z,50.02
2022-08-26T23:06:43.334Z,49.70
2022-08-26T23:09:18.720Z,49.79
2022-08-26T23:11:48.644Z,49.68
2022-08-26T23:14:18.742Z,49.88
2022-08-26T23:16:47.886Z,50.38
2022-08-26T23:19:18.830Z,50.83
2022-08-26T23:21:47.369Z,51.19
2022-08-26T23:24:17.403Z,50.78
2022-08-26T23:26:45.768Z,51.11
2022-08-26T23:29:15.751Z,51.25
2022-08-26T23:31:44.657Z,51.11
2022-08-26T23:34:43.022Z,51.55
2022-08-26T23:37:11.027Z,51.40
2022-08-26T23:39:38.893Z,51.37
2022-08-26T23:42:08.323Z,51.77
2022-08-26T23:44:36.988Z,51.62
2022-08-26T23:47:06.303Z,52.17
2022-08-26T23:49:34.572Z,52.49
2022-08-26T23:52:22.555Z,52.77
2022-08-26T23:54:51.296Z,52.95
2022-08-26T23:57:21.248Z,53.26
2022-08-26T23:59:49.698Z,53.76
